sensor_id;sensor_type;location;lat;lon;timestamp;P1;durP1;ratioP1;P2;durP2;ratioP2
31018;SDS011;17689;45.610;5.858;2022-07-05T00:01:02;2.60;;;2.40;;
31018;SDS011;17689;45.610;5.858;2022-07-05T00:03:28;5.57;;;2.63;;
31018;SDS011;17689;45.610;5.858;2022-07-05T00:05:55;2.93;;;2.47;;
31018;SDS011;17689;45.610;5.858;2022-07-05T00:08:21;5.20;;;2.80;;
31018;SDS011;17689;45.610;5.858;2022-07-05T00:10:47;3.93;;;2.80;;
31018;SDS011;17689;45.610;5.858;2022-07-05T00:13:14;2.87;;;2.20;;
31018;SDS011;17689;45.610;5.858;2022-07-05T00:15:40;2.80;;;2.17;;
31018;SDS011;17689;45.610;5.858;2022-07-05T00:18:06;3.20;;;2.33;;
31018;SDS011;17689;45.610;5.858;2022-07-05T00:20:32;3.00;;;2.50;;
31018;SDS011;17689;45.610;5.858;2022-07-05T00:22:59;2.70;;;2.50;;
31018;SDS011;17689;45.610;5.858;2022-07-05T00:25:25;3.60;;;2.80;;
31018;SDS011;17689;45.610;5.858;2022-07-05T00:27:51;4.00;;;2.47;;
31018;SDS011;17689;45.610;5.858;2022-07-05T00:30:18;7.20;;;2.53;;
31018;SDS011;17689;45.610;5.858;2022-07-05T00:32:45;2.60;;;2.40;;
31018;SDS011;17689;45.610;5.858;2022-07-05T00:35:11;2.93;;;2.63;;
31018;SDS011;17689;45.610;5.858;2022-07-05T00:37:37;3.13;;;2.33;;
31018;SDS011;17689;45.610;5.858;2022-07-05T00:40:04;3.17;;;2.40;;
31018;SDS011;17689;45.610;5.858;2022-07-05T00:42:32;4.23;;;2.70;;
31018;SDS011;17689;45.610;5.858;2022-07-05T00:44:58;2.93;;;2.23;;
31018;SDS011;17689;45.610;5.858;2022-07-05T00:47:25;4.27;;;2.67;;
31018;SDS011;17689;45.610;5.858;2022-07-05T00:49:51;2.67;;;2.43;;
31018;SDS011;17689;45.610;5.858;2022-07-05T00:52:17;3.57;;;2.50;;
31018;SDS011;17689;45.610;5.858;2022-07-05T00:54:44;5.13;;;2.57;;
31018;SDS011;17689;45.610;5.858;2022-07-05T00:57:10;2.80;;;2.40;;
31018;SDS011;17689;45.610;5.858;2022-07-05T00:59:36;3.27;;;2.40;;
31018;SDS011;17689;45.610;5.858;2022-07-05T01:02:02;5.13;;;2.50;;
31018;SDS011;17689;45.610;5.858;2022-07-05T01:04:28;2.73;;;2.20;;
31018;SDS011;17689;45.610;5.858;2022-07-05T01:06:55;3.77;;;2.40;;
31018;SDS011;17689;45.610;5.858;2022-07-05T01:09:21;4.37;;;2.53;;
31018;SDS011;17689;45.610;5.858;2022-07-05T01:11:49;2.80;;;2.30;;
31018;SDS011;17689;45.610;5.858;2022-07-05T01:14:16;2.70;;;2.33;;
31018;SDS011;17689;45.610;5.858;2022-07-05T01:16:43;2.90;;;2.27;;
31018;SDS011;17689;45.610;5.858;2022-07-05T01:19:10;3.90;;;2.60;;
31018;SDS011;17689;45.610;5.858;2022-07-05T01:21:40;3.47;;;2.07;;
31018;SDS011;17689;45.610;5.858;2022-07-05T01:24:07;2.67;;;2.47;;
31018;SDS011;17689;45.610;5.858;2022-07-05T01:26:34;4.10;;;2.43;;
31018;SDS011;17689;45.610;5.858;2022-07-05T01:29:00;3.23;;;2.30;;
31018;SDS011;17689;45.610;5.858;2022-07-05T01:31:26;2.80;;;2.40;;
31018;SDS011;17689;45.610;5.858;2022-07-05T01:33:53;3.00;;;2.50;;
31018;SDS011;17689;45.610;5.858;2022-07-05T01:36:19;4.50;;;2.30;;
31018;SDS011;17689;45.610;5.858;2022-07-05T01:38:45;3.43;;;2.30;;
31018;SDS011;17689;45.610;5.858;2022-07-05T01:41:11;4.23;;;2.50;;
31018;SDS011;17689;45.610;5.858;2022-07-05T01:43:37;2.67;;;2.47;;
31018;SDS011;17689;45.610;5.858;2022-07-05T01:46:05;3.67;;;2.53;;
31018;SDS011;17689;45.610;5.858;2022-07-05T01:48:33;3.80;;;2.37;;
31018;SDS011;17689;45.610;5.858;2022-07-05T01:51:01;2.43;;;2.27;;
31018;SDS011;17689;45.610;5.858;2022-07-05T01:53:31;2.77;;;2.20;;
31018;SDS011;17689;45.610;5.858;2022-07-05T01:56:00;2.77;;;2.30;;
31018;SDS011;17689;45.610;5.858;2022-07-05T01:58:27;3.00;;;2.50;;
31018;SDS011;17689;45.610;5.858;2022-07-05T02:00:54;2.73;;;2.40;;
31018;SDS011;17689;45.610;5.858;2022-07-05T02:03:24;5.07;;;2.80;;
31018;SDS011;17689;45.610;5.858;2022-07-05T02:05:54;4.60;;;2.70;;
31018;SDS011;17689;45.610;5.858;2022-07-05T02:08:20;4.63;;;2.50;;
31018;SDS011;17689;45.610;5.858;2022-07-05T02:10:46;2.90;;;2.60;;
31018;SDS011;17689;45.610;5.858;2022-07-05T02:13:13;3.70;;;2.27;;
31018;SDS011;17689;45.610;5.858;2022-07-05T02:15:40;3.13;;;2.30;;
31018;SDS011;17689;45.610;5.858;2022-07-05T02:18:07;5.57;;;2.67;;
31018;SDS011;17689;45.610;5.858;2022-07-05T02:20:34;3.13;;;2.40;;
31018;SDS011;17689;45.610;5.858;2022-07-05T02:23:00;2.97;;;2.40;;
31018;SDS011;17689;45.610;5.858;2022-07-05T02:25:27;2.50;;;2.30;;
31018;SDS011;17689;45.610;5.858;2022-07-05T02:27:53;2.73;;;2.40;;
31018;SDS011;17689;45.610;5.858;2022-07-05T02:30:19;3.27;;;2.40;;
31018;SDS011;17689;45.610;5.858;2022-07-05T02:32:46;3.37;;;2.60;;
31018;SDS011;17689;45.610;5.858;2022-07-05T02:35:12;3.47;;;2.20;;
31018;SDS011;17689;45.610;5.858;2022-07-05T02:37:39;4.00;;;2.73;;
31018;SDS011;17689;45.610;5.858;2022-07-05T02:40:09;3.30;;;2.47;;
31018;SDS011;17689;45.610;5.858;2022-07-05T02:42:36;3.00;;;2.30;;
31018;SDS011;17689;45.610;5.858;2022-07-05T02:45:02;3.87;;;2.43;;
31018;SDS011;17689;45.610;5.858;2022-07-05T02:47:29;2.70;;;2.13;;
31018;SDS011;17689;45.610;5.858;2022-07-05T02:49:56;2.77;;;2.37;;
31018;SDS011;17689;45.610;5.858;2022-07-05T02:52:23;5.17;;;3.30;;
31018;SDS011;17689;45.610;5.858;2022-07-05T02:54:49;3.10;;;2.60;;
31018;SDS011;17689;45.610;5.858;2022-07-05T02:57:15;4.10;;;2.40;;
31018;SDS011;17689;45.610;5.858;2022-07-05T02:59:41;4.23;;;2.60;;
31018;SDS011;17689;45.610;5.858;2022-07-05T03:02:07;3.67;;;2.70;;
31018;SDS011;17689;45.610;5.858;2022-07-05T03:04:33;4.67;;;2.60;;
31018;SDS011;17689;45.610;5.858;2022-07-05T03:07:00;3.30;;;2.40;;
31018;SDS011;17689;45.610;5.858;2022-07-05T03:09:26;2.80;;;2.43;;
31018;SDS011;17689;45.610;5.858;2022-07-05T03:11:52;3.17;;;2.37;;
31018;SDS011;17689;45.610;5.858;2022-07-05T03:14:18;3.87;;;2.77;;
31018;SDS011;17689;45.610;5.858;2022-07-05T03:16:45;3.67;;;2.50;;
31018;SDS011;17689;45.610;5.858;2022-07-05T03:19:11;2.80;;;2.60;;
31018;SDS011;17689;45.610;5.858;2022-07-05T03:21:37;6.30;;;2.50;;
31018;SDS011;17689;45.610;5.858;2022-07-05T03:24:04;2.43;;;2.23;;
31018;SDS011;17689;45.610;5.858;2022-07-05T03:26:30;4.63;;;2.60;;
31018;SDS011;17689;45.610;5.858;2022-07-05T03:28:56;3.67;;;2.60;;
31018;SDS011;17689;45.610;5.858;2022-07-05T03:31:22;5.27;;;2.50;;
31018;SDS011;17689;45.610;5.858;2022-07-05T03:33:48;3.70;;;2.23;;
31018;SDS011;17689;45.610;5.858;2022-07-05T03:36:14;3.10;;;2.70;;
31018;SDS011;17689;45.610;5.858;2022-07-05T03:38:41;3.70;;;2.63;;
31018;SDS011;17689;45.610;5.858;2022-07-05T03:41:07;4.43;;;2.70;;
31018;SDS011;17689;45.610;5.858;2022-07-05T03:43:33;3.50;;;2.60;;
31018;SDS011;17689;45.610;5.858;2022-07-05T03:45:59;4.37;;;2.70;;
31018;SDS011;17689;45.610;5.858;2022-07-05T03:48:25;3.60;;;2.77;;
31018;SDS011;17689;45.610;5.858;2022-07-05T03:50:51;3.33;;;2.50;;
31018;SDS011;17689;45.610;5.858;2022-07-05T03:53:18;2.80;;;2.60;;
31018;SDS011;17689;45.610;5.858;2022-07-05T03:55:44;2.87;;;2.40;;
31018;SDS011;17689;45.610;5.858;2022-07-05T03:58:10;3.60;;;2.50;;
31018;SDS011;17689;45.610;5.858;2022-07-05T04:00:36;5.50;;;2.90;;
31018;SDS011;17689;45.610;5.858;2022-07-05T04:03:02;5.17;;;2.63;;
31018;SDS011;17689;45.610;5.858;2022-07-05T04:05:28;3.20;;;2.40;;
31018;SDS011;17689;45.610;5.858;2022-07-05T04:07:55;3.00;;;2.70;;
31018;SDS011;17689;45.610;5.858;2022-07-05T04:10:22;4.47;;;2.80;;
31018;SDS011;17689;45.610;5.858;2022-07-05T04:12:48;4.37;;;2.70;;
31018;SDS011;17689;45.610;5.858;2022-07-05T04:15:14;3.60;;;2.70;;
31018;SDS011;17689;45.610;5.858;2022-07-05T04:17:53;3.53;;;2.73;;
31018;SDS011;17689;45.610;5.858;2022-07-05T04:20:19;3.50;;;2.50;;
31018;SDS011;17689;45.610;5.858;2022-07-05T04:22:55;4.83;;;2.67;;
31018;SDS011;17689;45.610;5.858;2022-07-05T04:25:21;3.37;;;2.63;;
31018;SDS011;17689;45.610;5.858;2022-07-05T04:27:49;6.43;;;2.60;;
31018;SDS011;17689;45.610;5.858;2022-07-05T04:30:15;5.97;;;2.90;;
31018;SDS011;17689;45.610;5.858;2022-07-05T04:32:42;3.53;;;2.50;;
31018;SDS011;17689;45.610;5.858;2022-07-05T04:35:08;3.03;;;2.60;;
31018;SDS011;17689;45.610;5.858;2022-07-05T04:37:35;4.47;;;2.70;;
31018;SDS011;17689;45.610;5.858;2022-07-05T04:40:03;5.93;;;2.87;;
31018;SDS011;17689;45.610;5.858;2022-07-05T04:42:29;6.70;;;2.60;;
31018;SDS011;17689;45.610;5.858;2022-07-05T04:44:55;4.70;;;2.60;;
31018;SDS011;17689;45.610;5.858;2022-07-05T04:47:21;3.67;;;2.40;;
31018;SDS011;17689;45.610;5.858;2022-07-05T04:49:48;5.23;;;2.47;;
31018;SDS011;17689;45.610;5.858;2022-07-05T04:52:14;3.40;;;2.40;;
31018;SDS011;17689;45.610;5.858;2022-07-05T04:54:40;3.40;;;2.60;;
31018;SDS011;17689;45.610;5.858;2022-07-05T04:57:06;5.53;;;2.83;;
31018;SDS011;17689;45.610;5.858;2022-07-05T04:59:32;5.27;;;2.70;;
31018;SDS011;17689;45.610;5.858;2022-07-05T05:01:58;3.47;;;2.63;;
31018;SDS011;17689;45.610;5.858;2022-07-05T05:04:25;3.67;;;2.37;;
31018;SDS011;17689;45.610;5.858;2022-07-05T05:06:51;2.90;;;2.47;;
31018;SDS011;17689;45.610;5.858;2022-07-05T05:09:17;4.37;;;2.37;;
31018;SDS011;17689;45.610;5.858;2022-07-05T05:11:43;4.83;;;2.50;;
31018;SDS011;17689;45.610;5.858;2022-07-05T05:14:09;3.17;;;2.53;;
31018;SDS011;17689;45.610;5.858;2022-07-05T05:16:35;5.67;;;2.63;;
31018;SDS011;17689;45.610;5.858;2022-07-05T05:19:02;8.27;;;2.77;;
31018;SDS011;17689;45.610;5.858;2022-07-05T05:21:28;3.47;;;2.50;;
31018;SDS011;17689;45.610;5.858;2022-07-05T05:23:54;5.10;;;2.40;;
31018;SDS011;17689;45.610;5.858;2022-07-05T05:26:20;3.63;;;2.40;;
31018;SDS011;17689;45.610;5.858;2022-07-05T05:28:46;3.77;;;2.70;;
31018;SDS011;17689;45.610;5.858;2022-07-05T05:31:12;3.90;;;2.37;;
31018;SDS011;17689;45.610;5.858;2022-07-05T05:33:39;3.03;;;2.40;;
31018;SDS011;17689;45.610;5.858;2022-07-05T05:36:05;3.07;;;2.33;;
31018;SDS011;17689;45.610;5.858;2022-07-05T05:38:31;3.63;;;2.40;;
31018;SDS011;17689;45.610;5.858;2022-07-05T05:40:58;3.33;;;2.73;;
31018;SDS011;17689;45.610;5.858;2022-07-05T05:43:24;4.30;;;2.67;;
31018;SDS011;17689;45.610;5.858;2022-07-05T05:45:50;4.07;;;2.43;;
31018;SDS011;17689;45.610;5.858;2022-07-05T05:48:16;5.77;;;2.80;;
31018;SDS011;17689;45.610;5.858;2022-07-05T05:50:43;4.00;;;2.60;;
31018;SDS011;17689;45.610;5.858;2022-07-05T05:53:09;4.07;;;2.50;;
31018;SDS011;17689;45.610;5.858;2022-07-05T05:55:35;3.30;;;2.50;;
31018;SDS011;17689;45.610;5.858;2022-07-05T05:58:11;4.80;;;2.80;;
31018;SDS011;17689;45.610;5.858;2022-07-05T06:00:38;6.57;;;2.57;;
31018;SDS011;17689;45.610;5.858;2022-07-05T06:03:04;6.70;;;2.60;;
31018;SDS011;17689;45.610;5.858;2022-07-05T06:05:30;4.73;;;2.47;;
31018;SDS011;17689;45.610;5.858;2022-07-05T06:07:57;5.00;;;2.77;;
31018;SDS011;17689;45.610;5.858;2022-07-05T06:10:24;3.87;;;2.50;;
31018;SDS011;17689;45.610;5.858;2022-07-05T06:12:54;6.17;;;2.70;;
31018;SDS011;17689;45.610;5.858;2022-07-05T06:15:22;4.40;;;2.87;;
31018;SDS011;17689;45.610;5.858;2022-07-05T06:17:49;4.93;;;2.50;;
31018;SDS011;17689;45.610;5.858;2022-07-05T06:20:16;4.17;;;3.00;;
31018;SDS011;17689;45.610;5.858;2022-07-05T06:22:43;4.87;;;3.00;;
31018;SDS011;17689;45.610;5.858;2022-07-05T06:25:09;7.37;;;3.20;;
31018;SDS011;17689;45.610;5.858;2022-07-05T06:27:41;8.30;;;2.90;;
31018;SDS011;17689;45.610;5.858;2022-07-05T06:30:08;6.43;;;2.70;;
31018;SDS011;17689;45.610;5.858;2022-07-05T06:32:34;10.27;;;3.33;;
31018;SDS011;17689;45.610;5.858;2022-07-05T06:35:02;7.00;;;3.17;;
31018;SDS011;17689;45.610;5.858;2022-07-05T06:37:39;6.47;;;3.30;;
31018;SDS011;17689;45.610;5.858;2022-07-05T06:40:05;6.33;;;3.00;;
31018;SDS011;17689;45.610;5.858;2022-07-05T06:42:32;7.23;;;3.07;;
31018;SDS011;17689;45.610;5.858;2022-07-05T06:44:58;5.03;;;2.63;;
31018;SDS011;17689;45.610;5.858;2022-07-05T06:47:24;6.47;;;2.67;;
31018;SDS011;17689;45.610;5.858;2022-07-05T06:49:50;6.07;;;2.60;;
31018;SDS011;17689;45.610;5.858;2022-07-05T06:52:16;4.30;;;2.50;;
31018;SDS011;17689;45.610;5.858;2022-07-05T06:54:42;5.40;;;2.40;;
31018;SDS011;17689;45.610;5.858;2022-07-05T06:57:09;4.40;;;2.27;;
31018;SDS011;17689;45.610;5.858;2022-07-05T06:59:35;7.33;;;2.50;;
31018;SDS011;17689;45.610;5.858;2022-07-05T07:02:01;5.97;;;2.33;;
31018;SDS011;17689;45.610;5.858;2022-07-05T07:04:28;3.10;;;2.13;;
31018;SDS011;17689;45.610;5.858;2022-07-05T07:06:54;4.87;;;2.30;;
31018;SDS011;17689;45.610;5.858;2022-07-05T07:09:20;3.20;;;2.23;;
31018;SDS011;17689;45.610;5.858;2022-07-05T07:11:47;6.03;;;2.40;;
31018;SDS011;17689;45.610;5.858;2022-07-05T07:14:14;4.47;;;2.40;;
31018;SDS011;17689;45.610;5.858;2022-07-05T07:16:40;5.77;;;2.30;;
31018;SDS011;17689;45.610;5.858;2022-07-05T07:19:06;4.20;;;2.27;;
31018;SDS011;17689;45.610;5.858;2022-07-05T07:21:33;4.17;;;2.30;;
31018;SDS011;17689;45.610;5.858;2022-07-05T07:23:59;8.27;;;2.47;;
31018;SDS011;17689;45.610;5.858;2022-07-05T07:26:25;3.30;;;2.00;;
31018;SDS011;17689;45.610;5.858;2022-07-05T07:28:52;4.10;;;2.20;;
31018;SDS011;17689;45.610;5.858;2022-07-05T07:31:18;4.53;;;2.33;;
31018;SDS011;17689;45.610;5.858;2022-07-05T07:33:44;3.73;;;2.10;;
31018;SDS011;17689;45.610;5.858;2022-07-05T07:36:10;3.23;;;2.13;;
31018;SDS011;17689;45.610;5.858;2022-07-05T07:38:36;5.33;;;2.47;;
31018;SDS011;17689;45.610;5.858;2022-07-05T07:41:02;4.10;;;2.27;;
31018;SDS011;17689;45.610;5.858;2022-07-05T07:43:29;3.50;;;2.20;;
31018;SDS011;17689;45.610;5.858;2022-07-05T07:45:55;6.33;;;2.50;;
31018;SDS011;17689;45.610;5.858;2022-07-05T07:48:22;2.87;;;2.20;;
31018;SDS011;17689;45.610;5.858;2022-07-05T07:50:48;6.00;;;2.43;;
31018;SDS011;17689;45.610;5.858;2022-07-05T07:53:14;5.40;;;2.40;;
31018;SDS011;17689;45.610;5.858;2022-07-05T07:55:40;5.93;;;2.33;;
31018;SDS011;17689;45.610;5.858;2022-07-05T07:58:06;4.53;;;2.60;;
31018;SDS011;17689;45.610;5.858;2022-07-05T08:00:33;5.43;;;2.50;;
31018;SDS011;17689;45.610;5.858;2022-07-05T08:02:59;4.47;;;2.67;;
31018;SDS011;17689;45.610;5.858;2022-07-05T08:05:25;3.90;;;2.70;;
31018;SDS011;17689;45.610;5.858;2022-07-05T08:07:51;4.53;;;3.00;;
31018;SDS011;17689;45.610;5.858;2022-07-05T08:10:18;4.67;;;2.60;;
31018;SDS011;17689;45.610;5.858;2022-07-05T08:12:44;4.57;;;2.73;;
31018;SDS011;17689;45.610;5.858;2022-07-05T08:15:10;5.37;;;2.73;;
31018;SDS011;17689;45.610;5.858;2022-07-05T08:17:36;4.47;;;2.50;;
31018;SDS011;17689;45.610;5.858;2022-07-05T08:20:23;3.77;;;2.90;;
31018;SDS011;17689;45.610;5.858;2022-07-05T08:23:08;5.43;;;2.97;;
31018;SDS011;17689;45.610;5.858;2022-07-05T08:25:35;12.07;;;3.17;;
31018;SDS011;17689;45.610;5.858;2022-07-05T08:28:01;4.57;;;2.63;;
31018;SDS011;17689;45.610;5.858;2022-07-05T08:30:27;3.73;;;2.67;;
31018;SDS011;17689;45.610;5.858;2022-07-05T08:32:53;3.23;;;2.77;;
31018;SDS011;17689;45.610;5.858;2022-07-05T08:35:19;5.87;;;2.90;;
31018;SDS011;17689;45.610;5.858;2022-07-05T08:37:45;4.77;;;2.67;;
31018;SDS011;17689;45.610;5.858;2022-07-05T08:40:12;4.47;;;2.97;;
31018;SDS011;17689;45.610;5.858;2022-07-05T08:42:38;7.10;;;3.00;;
31018;SDS011;17689;45.610;5.858;2022-07-05T08:45:04;4.43;;;2.70;;
31018;SDS011;17689;45.610;5.858;2022-07-05T08:47:31;5.73;;;2.50;;
31018;SDS011;17689;45.610;5.858;2022-07-05T08:49:58;8.00;;;3.07;;
31018;SDS011;17689;45.610;5.858;2022-07-05T08:52:24;8.07;;;3.20;;
31018;SDS011;17689;45.610;5.858;2022-07-05T08:54:51;4.77;;;2.60;;
31018;SDS011;17689;45.610;5.858;2022-07-05T08:57:18;5.30;;;2.77;;
31018;SDS011;17689;45.610;5.858;2022-07-05T08:59:44;4.13;;;2.53;;
31018;SDS011;17689;45.610;5.858;2022-07-05T09:02:11;7.43;;;2.70;;
31018;SDS011;17689;45.610;5.858;2022-07-05T09:04:41;3.07;;;2.57;;
31018;SDS011;17689;45.610;5.858;2022-07-05T09:07:08;4.27;;;2.37;;
31018;SDS011;17689;45.610;5.858;2022-07-05T09:09:37;5.37;;;2.50;;
31018;SDS011;17689;45.610;5.858;2022-07-05T09:12:08;5.00;;;2.90;;
31018;SDS011;17689;45.610;5.858;2022-07-05T09:14:34;3.17;;;2.60;;
31018;SDS011;17689;45.610;5.858;2022-07-05T09:17:00;3.93;;;2.80;;
31018;SDS011;17689;45.610;5.858;2022-07-05T09:19:27;3.97;;;2.60;;
31018;SDS011;17689;45.610;5.858;2022-07-05T09:22:04;4.13;;;2.70;;
31018;SDS011;17689;45.610;5.858;2022-07-05T09:24:30;4.00;;;2.70;;
31018;SDS011;17689;45.610;5.858;2022-07-05T09:27:02;7.53;;;3.00;;
31018;SDS011;17689;45.610;5.858;2022-07-05T09:29:29;4.20;;;2.67;;
31018;SDS011;17689;45.610;5.858;2022-07-05T09:31:55;6.53;;;2.60;;
31018;SDS011;17689;45.610;5.858;2022-07-05T09:34:21;4.23;;;2.67;;
31018;SDS011;17689;45.610;5.858;2022-07-05T09:44:46;5.67;;;2.97;;
31018;SDS011;17689;45.610;5.858;2022-07-05T09:47:15;5.50;;;2.60;;
31018;SDS011;17689;45.610;5.858;2022-07-05T09:49:53;3.13;;;2.50;;
31018;SDS011;17689;45.610;5.858;2022-07-05T09:52:26;6.10;;;2.80;;
31018;SDS011;17689;45.610;5.858;2022-07-05T09:57:28;2.77;;;2.57;;
31018;SDS011;17689;45.610;5.858;2022-07-05T10:00:00;7.03;;;2.40;;
31018;SDS011;17689;45.610;5.858;2022-07-05T10:02:35;3.00;;;2.40;;
31018;SDS011;17689;45.610;5.858;2022-07-05T10:05:07;2.97;;;2.40;;
31018;SDS011;17689;45.610;5.858;2022-07-05T10:07:34;3.50;;;2.17;;
31018;SDS011;17689;45.610;5.858;2022-07-05T10:10:06;4.63;;;2.30;;
31018;SDS011;17689;45.610;5.858;2022-07-05T10:12:32;2.73;;;2.30;;
31018;SDS011;17689;45.610;5.858;2022-07-05T10:15:02;2.90;;;2.33;;
31018;SDS011;17689;45.610;5.858;2022-07-05T10:17:30;2.80;;;2.03;;
31018;SDS011;17689;45.610;5.858;2022-07-05T10:20:02;2.20;;;2.00;;
31018;SDS011;17689;45.610;5.858;2022-07-05T10:22:28;5.67;;;2.27;;
31018;SDS011;17689;45.610;5.858;2022-07-05T10:24:55;3.77;;;2.20;;
31018;SDS011;17689;45.610;5.858;2022-07-05T10:27:21;4.73;;;2.60;;
31018;SDS011;17689;45.610;5.858;2022-07-05T10:29:48;3.53;;;2.00;;
31018;SDS011;17689;45.610;5.858;2022-07-05T10:32:15;2.83;;;2.23;;
31018;SDS011;17689;45.610;5.858;2022-07-05T10:34:42;3.10;;;2.27;;
31018;SDS011;17689;45.610;5.858;2022-07-05T10:37:11;2.50;;;2.10;;
31018;SDS011;17689;45.610;5.858;2022-07-05T10:39:37;2.57;;;1.90;;
31018;SDS011;17689;45.610;5.858;2022-07-05T10:42:04;2.73;;;2.13;;
31018;SDS011;17689;45.610;5.858;2022-07-05T10:44:32;3.00;;;1.90;;
31018;SDS011;17689;45.610;5.858;2022-07-05T10:47:09;3.57;;;2.10;;
31018;SDS011;17689;45.610;5.858;2022-07-05T10:49:39;2.20;;;2.00;;
31018;SDS011;17689;45.610;5.858;2022-07-05T10:52:20;1.97;;;1.70;;
31018;SDS011;17689;45.610;5.858;2022-07-05T10:57:33;4.60;;;2.03;;
31018;SDS011;17689;45.610;5.858;2022-07-05T11:00:06;2.33;;;2.13;;
31018;SDS011;17689;45.610;5.858;2022-07-05T11:02:33;4.47;;;2.30;;
31018;SDS011;17689;45.610;5.858;2022-07-05T11:04:59;2.67;;;2.10;;
31018;SDS011;17689;45.610;5.858;2022-07-05T11:10:12;3.20;;;2.20;;
31018;SDS011;17689;45.610;5.858;2022-07-05T11:12:38;3.60;;;2.07;;
31018;SDS011;17689;45.610;5.858;2022-07-05T11:15:05;5.17;;;2.33;;
31018;SDS011;17689;45.610;5.858;2022-07-05T11:17:34;13.27;;;3.47;;
31018;SDS011;17689;45.610;5.858;2022-07-05T11:22:28;9.00;;;3.17;;
31018;SDS011;17689;45.610;5.858;2022-07-05T11:24:55;15.57;;;3.20;;
31018;SDS011;17689;45.610;5.858;2022-07-05T11:27:22;3.70;;;2.20;;
31018;SDS011;17689;45.610;5.858;2022-07-05T11:34:41;10.33;;;2.77;;
31018;SDS011;17689;45.610;5.858;2022-07-05T11:39:40;4.50;;;2.10;;
31018;SDS011;17689;45.610;5.858;2022-07-05T11:42:08;3.73;;;2.10;;
31018;SDS011;17689;45.610;5.858;2022-07-05T11:44:34;6.30;;;2.30;;
31018;SDS011;17689;45.610;5.858;2022-07-05T11:47:01;14.90;;;3.20;;
31018;SDS011;17689;45.610;5.858;2022-07-05T11:49:27;6.47;;;2.20;;
31018;SDS011;17689;45.610;5.858;2022-07-05T11:51:57;9.33;;;2.33;;
31018;SDS011;17689;45.610;5.858;2022-07-05T11:54:25;4.90;;;2.20;;
31018;SDS011;17689;45.610;5.858;2022-07-05T11:56:51;14.20;;;3.33;;
31018;SDS011;17689;45.610;5.858;2022-07-05T11:59:18;32.10;;;4.40;;
31018;SDS011;17689;45.610;5.858;2022-07-05T12:01:45;6.40;;;2.20;;
31018;SDS011;17689;45.610;5.858;2022-07-05T12:04:13;6.00;;;2.20;;
31018;SDS011;17689;45.610;5.858;2022-07-05T12:06:46;4.23;;;2.33;;
31018;SDS011;17689;45.610;5.858;2022-07-05T12:09:13;3.53;;;2.03;;
31018;SDS011;17689;45.610;5.858;2022-07-05T12:11:48;5.80;;;2.10;;
31018;SDS011;17689;45.610;5.858;2022-07-05T12:14:33;7.80;;;2.17;;
31018;SDS011;17689;45.610;5.858;2022-07-05T12:17:16;11.13;;;2.37;;
31018;SDS011;17689;45.610;5.858;2022-07-05T12:19:42;14.93;;;2.73;;
31018;SDS011;17689;45.610;5.858;2022-07-05T12:22:10;40.37;;;4.93;;
31018;SDS011;17689;45.610;5.858;2022-07-05T12:24:36;23.77;;;3.53;;
31018;SDS011;17689;45.610;5.858;2022-07-05T12:27:02;25.70;;;4.20;;
31018;SDS011;17689;45.610;5.858;2022-07-05T12:29:29;22.90;;;3.10;;
31018;SDS011;17689;45.610;5.858;2022-07-05T12:34:25;44.07;;;5.20;;
31018;SDS011;17689;45.610;5.858;2022-07-05T12:36:52;8.33;;;2.57;;
31018;SDS011;17689;45.610;5.858;2022-07-05T12:39:18;26.13;;;4.83;;
31018;SDS011;17689;45.610;5.858;2022-07-05T12:41:44;29.33;;;4.43;;
31018;SDS011;17689;45.610;5.858;2022-07-05T12:44:10;16.10;;;3.40;;
31018;SDS011;17689;45.610;5.858;2022-07-05T12:46:37;4.97;;;2.00;;
31018;SDS011;17689;45.610;5.858;2022-07-05T12:49:04;4.17;;;2.00;;
31018;SDS011;17689;45.610;5.858;2022-07-05T12:51:31;9.73;;;2.20;;
31018;SDS011;17689;45.610;5.858;2022-07-05T12:53:58;4.17;;;2.00;;
31018;SDS011;17689;45.610;5.858;2022-07-05T12:56:49;6.23;;;2.43;;
31018;SDS011;17689;45.610;5.858;2022-07-05T12:59:34;9.53;;;2.30;;
31018;SDS011;17689;45.610;5.858;2022-07-05T13:02:00;9.27;;;2.40;;
31018;SDS011;17689;45.610;5.858;2022-07-05T13:04:27;4.13;;;2.07;;
31018;SDS011;17689;45.610;5.858;2022-07-05T13:07:00;4.60;;;2.10;;
31018;SDS011;17689;45.610;5.858;2022-07-05T13:14:36;3.33;;;1.70;;
31018;SDS011;17689;45.610;5.858;2022-07-05T13:17:03;2.00;;;1.83;;
31018;SDS011;17689;45.610;5.858;2022-07-05T13:19:29;2.53;;;1.90;;
31018;SDS011;17689;45.610;5.858;2022-07-05T13:21:55;10.53;;;2.60;;
31018;SDS011;17689;45.610;5.858;2022-07-05T13:24:22;8.63;;;2.33;;
31018;SDS011;17689;45.610;5.858;2022-07-05T13:26:48;3.17;;;2.00;;
31018;SDS011;17689;45.610;5.858;2022-07-05T13:29:14;9.43;;;2.00;;
31018;SDS011;17689;45.610;5.858;2022-07-05T13:31:40;7.23;;;2.07;;
31018;SDS011;17689;45.610;5.858;2022-07-05T13:34:06;10.10;;;2.60;;
31018;SDS011;17689;45.610;5.858;2022-07-05T13:36:33;6.87;;;2.40;;
31018;SDS011;17689;45.610;5.858;2022-07-05T13:38:59;3.43;;;1.90;;
31018;SDS011;17689;45.610;5.858;2022-07-05T13:41:25;2.90;;;2.03;;
31018;SDS011;17689;45.610;5.858;2022-07-05T13:43:51;2.80;;;2.00;;
31018;SDS011;17689;45.610;5.858;2022-07-05T13:46:17;3.10;;;2.03;;
31018;SDS011;17689;45.610;5.858;2022-07-05T13:48:44;3.17;;;2.23;;
31018;SDS011;17689;45.610;5.858;2022-07-05T13:51:10;3.73;;;1.90;;
31018;SDS011;17689;45.610;5.858;2022-07-05T13:53:36;1.90;;;1.70;;
31018;SDS011;17689;45.610;5.858;2022-07-05T13:56:05;4.17;;;1.87;;
31018;SDS011;17689;45.610;5.858;2022-07-05T13:58:32;3.73;;;1.70;;
31018;SDS011;17689;45.610;5.858;2022-07-05T14:00:59;2.43;;;1.77;;
31018;SDS011;17689;45.610;5.858;2022-07-05T14:03:25;4.33;;;1.80;;
31018;SDS011;17689;45.610;5.858;2022-07-05T14:05:51;3.87;;;1.87;;
31018;SDS011;17689;45.610;5.858;2022-07-05T14:08:18;2.60;;;2.00;;
31018;SDS011;17689;45.610;5.858;2022-07-05T14:10:50;3.40;;;1.80;;
31018;SDS011;17689;45.610;5.858;2022-07-05T14:13:20;3.97;;;1.70;;
31018;SDS011;17689;45.610;5.858;2022-07-05T14:15:47;2.37;;;1.70;;
31018;SDS011;17689;45.610;5.858;2022-07-05T14:18:14;2.53;;;1.60;;
31018;SDS011;17689;45.610;5.858;2022-07-05T14:20:41;3.67;;;1.60;;
31018;SDS011;17689;45.610;5.858;2022-07-05T14:23:07;1.60;;;1.50;;
31018;SDS011;17689;45.610;5.858;2022-07-05T14:25:33;5.20;;;1.67;;
31018;SDS011;17689;45.610;5.858;2022-07-05T14:28:00;1.90;;;1.70;;
31018;SDS011;17689;45.610;5.858;2022-07-05T14:30:27;2.30;;;1.60;;
31018;SDS011;17689;45.610;5.858;2022-07-05T14:32:54;4.20;;;1.60;;
31018;SDS011;17689;45.610;5.858;2022-07-05T14:35:20;2.00;;;1.50;;
31018;SDS011;17689;45.610;5.858;2022-07-05T14:37:46;2.50;;;1.57;;
31018;SDS011;17689;45.610;5.858;2022-07-05T14:40:13;4.07;;;2.10;;
31018;SDS011;17689;45.610;5.858;2022-07-05T14:42:39;5.33;;;2.00;;
31018;SDS011;17689;45.610;5.858;2022-07-05T14:45:05;2.27;;;1.70;;
31018;SDS011;17689;45.610;5.858;2022-07-05T14:47:31;4.20;;;1.73;;
31018;SDS011;17689;45.610;5.858;2022-07-05T14:49:57;4.97;;;1.90;;
31018;SDS011;17689;45.610;5.858;2022-07-05T14:52:24;3.43;;;1.77;;
31018;SDS011;17689;45.610;5.858;2022-07-05T14:54:50;3.60;;;1.53;;
31018;SDS011;17689;45.610;5.858;2022-07-05T14:57:16;3.93;;;1.80;;
31018;SDS011;17689;45.610;5.858;2022-07-05T14:59:42;1.90;;;1.60;;
31018;SDS011;17689;45.610;5.858;2022-07-05T15:02:08;3.83;;;1.60;;
31018;SDS011;17689;45.610;5.858;2022-07-05T15:04:35;3.97;;;1.70;;
31018;SDS011;17689;45.610;5.858;2022-07-05T15:07:01;4.07;;;1.50;;
31018;SDS011;17689;45.610;5.858;2022-07-05T15:09:27;3.27;;;1.60;;
31018;SDS011;17689;45.610;5.858;2022-07-05T15:11:53;4.60;;;1.80;;
31018;SDS011;17689;45.610;5.858;2022-07-05T15:14:20;3.93;;;1.53;;
31018;SDS011;17689;45.610;5.858;2022-07-05T15:16:46;2.03;;;1.60;;
31018;SDS011;17689;45.610;5.858;2022-07-05T15:19:12;3.33;;;1.70;;
31018;SDS011;17689;45.610;5.858;2022-07-05T15:21:38;3.30;;;1.47;;